Time;durP1;ratioP1;P1;durP2;ratioP2;P2;SDS_P1;SDS_P2;PMS_P1;PMS_P2;Temp;Humidity;BMP_temperature;BMP_pressure;BME280_temperature;BME280_humidity;BME280_pressure;Samples;Min_cycle;Max_cycle;Signal;HPM_P1;HPM_P2
2022/11/03 00:01:39;;;;;;;19.02;10.57;;;;;;;;;;4956412;29;20038;-76
2022/11/03 00:04:05;;;;;;;14.80;10.05;;;;;;;;;;4954511;28;20023;-76
2022/11/03 00:06:31;;;;;;;17.30;10.68;;;;;;;;;;4956004;29;20023;-76
2022/11/03 00:08:58;;;;;;;15.98;10.65;;;;;;;;;;4955991;29;20451;-76
2022/11/03 00:11:24;;;;;;;14.85;9.93;;;;;;;;;;4971025;28;20483;-76
2022/11/03 00:13:50;;;;;;;14.18;10.23;;;;;;;;;;4955893;29;20019;-76
2022/11/03 00:16:18;;;;;;;16.45;9.95;;;;;;;;;;4955895;29;20035;-76
2022/11/03 00:18:43;;;;;;;18.90;10.25;;;;;;;;;;4956078;29;20027;-77
2022/11/03 00:21:13;;;;;;;14.90;10.23;;;;;;;;;;4954385;29;20049;-77
2022/11/03 00:23:39;;;;;;;12.07;9.55;;;;;;;;;;4954665;29;20459;-78
2022/11/03 00:26:13;;;;;;;18.65;9.85;;;;;;;;;;4954382;29;20050;-78
2022/11/03 00:28:40;;;;;;;16.50;10.27;;;;;;;;;;4955747;29;20514;-78
2022/11/03 00:31:07;;;;;;;15.77;10.45;;;;;;;;;;4955647;29;20038;-78
2022/11/03 00:33:32;;;;;;;16.10;10.63;;;;;;;;;;4955505;29;20027;-78
2022/11/03 00:36:00;;;;;;;17.08;10.23;;;;;;;;;;4956002;29;20019;-78
2022/11/03 00:38:27;;;;;;;17.85;10.77;;;;;;;;;;4955697;29;20502;-76
2022/11/03 00:40:53;;;;;;;15.60;11.10;;;;;;;;;;4955619;29;20050;-75
2022/11/03 00:43:19;;;;;;;17.85;11.02;;;;;;;;;;4970227;28;20105;-75
2022/11/03 00:45:44;;;;;;;16.38;11.00;;;;;;;;;;4938287;29;20015;-75
2022/11/03 00:48:28;;;;;;;17.85;10.73;;;;;;;;;;4955618;29;20039;-75
2022/11/03 00:51:04;;;;;;;16.15;10.60;;;;;;;;;;4955388;29;20035;-75
2022/11/03 00:53:31;;;;;;;17.55;11.15;;;;;;;;;;4955700;29;20027;-75
2022/11/03 00:55:56;;;;;;;19.77;11.82;;;;;;;;;;4955415;29;20054;-75
2022/11/03 00:58:23;;;;;;;22.00;12.15;;;;;;;;;;4955231;29;20055;-76
2022/11/03 01:00:49;;;;;;;18.35;12.10;;;;;;;;;;4955203;29;20062;-77
2022/11/03 01:03:14;;;;;;;17.08;10.75;;;;;;;;;;4954001;29;20444;-77
2022/11/03 01:08:24;;;;;;;17.00;10.80;;;;;;;;;;4954023;29;20035;-75
2022/11/03 01:13:34;;;;;;;17.05;10.48;;;;;;;;;;4955694;29;20035;-75
2022/11/03 01:15:59;;;;;;;15.57;10.82;;;;;;;;;;4955583;28;20379;-76
2022/11/03 01:18:24;;;;;;;18.65;11.20;;;;;;;;;;4958726;29;20035;-76
2022/11/03 01:20:55;;;;;;;18.85;11.88;;;;;;;;;;4958602;29;20066;-75
2022/11/03 01:23:21;;;;;;;17.50;12.18;;;;;;;;;;4959133;29;20027;-76
2022/11/03 01:25:49;;;;;;;17.92;12.05;;;;;;;;;;4958645;29;20539;-77
2022/11/03 01:28:15;;;;;;;16.50;11.20;;;;;;;;;;4958846;29;20095;-75
2022/11/03 01:30:40;;;;;;;17.33;11.07;;;;;;;;;;4959048;29;20058;-75
2022/11/03 01:33:06;;;;;;;18.13;11.05;;;;;;;;;;4958641;29;20118;-75
2022/11/03 01:35:31;;;;;;;19.85;11.18;;;;;;;;;;4958505;29;20027;-75
2022/11/03 01:37:57;;;;;;;18.85;11.63;;;;;;;;;;4958511;29;20027;-75
2022/11/03 01:40:23;;;;;;;20.25;12.73;;;;;;;;;;4963485;28;20030;-76
2022/11/03 01:42:48;;;;;;;18.85;13.07;;;;;;;;;;4978217;28;20031;-75
2022/11/03 01:45:13;;;;;;;26.20;14.15;;;;;;;;;;4978245;28;20023;-75
2022/11/03 01:47:41;;;;;;;22.55;14.45;;;;;;;;;;4978371;28;20113;-76
2022/11/03 01:50:08;;;;;;;27.90;15.20;;;;;;;;;;4993014;28;20029;-76
2022/11/03 01:52:41;;;;;;;27.35;15.82;;;;;;;;;;4977616;28;20038;-71
2022/11/03 01:55:12;;;;;;;26.05;16.00;;;;;;;;;;4977695;28;20035;-72
2022/11/03 01:57:43;;;;;;;25.38;15.35;;;;;;;;;;4977604;28;20067;-72
2022/11/03 02:00:09;;;;;;;24.73;16.05;;;;;;;;;;4977540;28;20049;-71
2022/11/03 02:02:40;;;;;;;23.60;15.70;;;;;;;;;;4977626;28;20061;-71
2022/11/03 02:05:06;;;;;;;20.73;14.75;;;;;;;;;;4977539;28;20023;-71
2022/11/03 02:07:58;;;;;;;25.20;14.80;;;;;;;;;;4992219;28;20363;-71
2022/11/03 02:10:24;;;;;;;23.30;14.45;;;;;;;;;;4958576;28;20483;-71
2022/11/03 02:12:49;;;;;;;22.30;14.60;;;;;;;;;;4992365;28;20026;-71
2022/11/03 02:15:17;;;;;;;23.70;14.10;;;;;;;;;;4977122;28;20034;-71
2022/11/03 02:17:43;;;;;;;23.40;13.90;;;;;;;;;;4977189;28;20019;-72
2022/11/03 02:20:16;;;;;;;22.05;14.77;;;;;;;;;;4976981;28;20031;-75
2022/11/03 02:22:57;;;;;;;24.35;14.82;;;;;;;;;;4977273;28;20459;-75
2022/11/03 02:25:31;;;;;;;25.88;15.93;;;;;;;;;;4976291;28;20505;-75
2022/11/03 02:27:58;;;;;;;28.50;17.10;;;;;;;;;;4976770;28;20507;-76
2022/11/03 02:30:25;;;;;;;28.13;16.17;;;;;;;;;;4977086;28;20034;-76
2022/11/03 02:32:54;;;;;;;24.60;15.65;;;;;;;;;;4977050;28;20058;-75
2022/11/03 02:35:27;;;;;;;26.77;15.68;;;;;;;;;;4976844;28;20038;-74
2022/11/03 02:37:56;;;;;;;26.13;16.08;;;;;;;;;;4977560;28;20038;-76
2022/11/03 02:40:36;;;;;;;30.30;16.42;;;;;;;;;;4976755;28;20077;-74
2022/11/03 02:43:02;;;;;;;26.55;16.13;;;;;;;;;;4978804;28;20482;-74
2022/11/03 02:45:29;;;;;;;26.52;15.50;;;;;;;;;;4980306;28;20026;-75
2022/11/03 02:47:56;;;;;;;25.83;15.93;;;;;;;;;;4979729;28;20030;-75
2022/11/03 02:50:25;;;;;;;23.73;15.77;;;;;;;;;;4976376;28;20022;-75
2022/11/03 02:52:51;;;;;;;25.90;16.23;;;;;;;;;;4977297;28;20041;-75
2022/11/03 02:55:16;;;;;;;24.45;16.30;;;;;;;;;;4977618;28;20030;-76
2022/11/03 02:57:46;;;;;;;26.10;16.95;;;;;;;;;;4976842;28;20031;-76
2022/11/03 03:00:11;;;;;;;25.42;16.52;;;;;;;;;;4976893;28;20055;-76
2022/11/03 03:02:43;;;;;;;21.60;15.00;;;;;;;;;;4976976;28;20105;-76
2022/11/03 03:05:10;;;;;;;22.05;14.60;;;;;;;;;;4976180;28;20033;-75
2022/11/03 03:07:37;;;;;;;25.75;16.38;;;;;;;;;;4976414;28;20070;-75
2022/11/03 03:10:02;;;;;;;25.73;17.27;;;;;;;;;;4974954;28;20030;-75
2022/11/03 03:12:29;;;;;;;28.40;17.27;;;;;;;;;;4991314;28;20027;-75
2022/11/03 03:14:56;;;;;;;23.50;15.57;;;;;;;;;;4976255;28;20026;-75
2022/11/03 03:17:33;;;;;;;24.42;13.93;;;;;;;;;;4990927;28;20542;-75
2022/11/03 03:20:25;;;;;;;19.30;12.75;;;;;;;;;;4976092;28;20031;-75
2022/11/03 03:22:57;;;;;;;22.73;13.38;;;;;;;;;;4974129;28;20411;-76
2022/11/03 03:25:25;;;;;;;21.52;14.48;;;;;;;;;;4976108;28;20094;-76
2022/11/03 03:27:54;;;;;;;25.95;14.73;;;;;;;;;;4958529;28;20090;-76
2022/11/03 03:30:20;;;;;;;22.92;14.45;;;;;;;;;;4975737;28;20038;-76
2022/11/03 03:32:47;;;;;;;27.90;16.10;;;;;;;;;;4975817;28;20434;-76
2022/11/03 03:35:23;;;;;;;26.88;15.55;;;;;;;;;;4990605;28;20037;-76
2022/11/03 03:37:50;;;;;;;28.02;15.65;;;;;;;;;;4989844;28;20529;-75
2022/11/03 03:40:20;;;;;;;21.90;14.00;;;;;;;;;;4975568;28;20134;-75
2022/11/03 03:42:46;;;;;;;24.60;14.27;;;;;;;;;;4975854;28;20026;-76
2022/11/03 03:45:13;;;;;;;21.00;13.32;;;;;;;;;;4975461;28;20434;-76
2022/11/03 03:47:39;;;;;;;19.77;11.02;;;;;;;;;;4958302;28;20035;-76
2022/11/03 03:50:05;;;;;;;16.77;11.25;;;;;;;;;;4975407;28;20026;-76
2022/11/03 03:52:32;;;;;;;19.85;12.65;;;;;;;;;;4975373;28;20037;-76
2022/11/03 03:54:57;;;;;;;26.33;14.82;;;;;;;;;;4975382;28;20026;-76
2022/11/03 03:57:24;;;;;;;30.42;16.58;;;;;;;;;;4974004;28;20081;-76
2022/11/03 03:59:49;;;;;;;24.08;15.35;;;;;;;;;;4975223;28;20025;-76
2022/11/03 04:02:15;;;;;;;23.90;14.63;;;;;;;;;;4958429;28;20036;-76
2022/11/03 04:04:41;;;;;;;24.95;15.75;;;;;;;;;;4975155;28;20430;-78
2022/11/03 04:09:52;;;;;;;18.83;13.02;;;;;;;;;;4975085;28;20039;-75
2022/11/03 04:23:14;;;;;;;14.57;10.10;;;;;;;;;;4975091;28;20138;-76
2022/11/03 04:25:40;;;;;;;18.33;11.60;;;;;;;;;;4972895;28;20125;-71
2022/11/03 04:28:12;;;;;;;22.67;14.18;;;;;;;;;;4975321;28;20042;-70
2022/11/03 04:30:38;;;;;;;20.63;12.88;;;;;;;;;;4975130;28;20034;-71
2022/11/03 04:33:09;;;;;;;20.65;12.57;;;;;;;;;;4974920;28;20375;-71
2022/11/03 04:35:34;;;;;;;20.92;12.73;;;;;;;;;;4973529;28;20090;-71
2022/11/03 04:38:02;;;;;;;22.17;12.77;;;;;;;;;;4975026;28;20014;-71
2022/11/03 04:40:27;;;;;;;20.98;13.05;;;;;;;;;;4974830;28;20069;-71
2022/11/03 04:42:53;;;;;;;21.05;13.55;;;;;;;;;;4974704;28;20447;-71
2022/11/03 04:45:23;;;;;;;24.30;14.55;;;;;;;;;;4975006;28;20033;-71
2022/11/03 04:47:48;;;;;;;21.02;13.82;;;;;;;;;;4975102;28;20122;-71
2022/11/03 04:50:16;;;;;;;24.77;14.50;;;;;;;;;;4977347;28;20066;-72
2022/11/03 04:52:41;;;;;;;21.35;13.10;;;;;;;;;;4979049;28;20030;-72
2022/11/03 04:55:12;;;;;;;20.60;13.43;;;;;;;;;;4977153;28;20367;-72
2022/11/03 04:57:39;;;;;;;19.95;12.68;;;;;;;;;;4977178;28;20062;-72
2022/11/03 05:00:06;;;;;;;21.90;13.25;;;;;;;;;;4977009;28;20502;-72
2022/11/03 05:02:31;;;;;;;20.92;13.07;;;;;;;;;;4977603;28;20027;-72
2022/11/03 05:04:57;;;;;;;21.25;12.70;;;;;;;;;;4978045;28;20509;-70
2022/11/03 05:07:26;;;;;;;25.27;12.90;;;;;;;;;;4978158;28;20031;-71
2022/11/03 05:09:52;;;;;;;24.85;13.27;;;;;;;;;;4978213;28;20026;-71
2022/11/03 05:12:18;;;;;;;24.88;13.10;;;;;;;;;;4977327;28;20039;-71
2022/11/03 05:14:44;;;;;;;24.63;13.18;;;;;;;;;;4959404;28;20045;-71
2022/11/03 05:17:23;;;;;;;25.35;14.63;;;;;;;;;;4976741;28;20490;-71
2022/11/03 05:19:52;;;;;;;32.07;14.93;;;;;;;;;;4959602;28;20173;-71
2022/11/03 05:22:20;;;;;;;28.73;14.52;;;;;;;;;;4977190;28;20027;-71
2022/11/03 05:24:46;;;;;;;24.50;13.23;;;;;;;;;;4977015;28;20117;-72
2022/11/03 05:27:15;;;;;;;20.90;12.55;;;;;;;;;;4975215;28;20098;-71
2022/11/03 05:29:41;;;;;;;29.10;14.82;;;;;;;;;;4976078;28;20019;-72
2022/11/03 05:32:33;;;;;;;37.58;16.90;;;;;;;;;;4977009;28;20026;-72
2022/11/03 05:34:58;;;;;;;30.58;16.75;;;;;;;;;;4974803;28;20050;-72
2022/11/03 05:37:34;;;;;;;34.38;18.45;;;;;;;;;;4976740;28;20026;-71
2022/11/03 05:40:02;;;;;;;33.95;18.90;;;;;;;;;;4975965;28;20038;-72
2022/11/03 05:42:35;;;;;;;35.30;20.08;;;;;;;;;;4975104;28;20390;-72
2022/11/03 05:45:07;;;;;;;33.45;20.17;;;;;;;;;;4976724;28;20109;-71
2022/11/03 05:47:37;;;;;;;34.28;18.95;;;;;;;;;;4976596;28;20027;-72
2022/11/03 05:50:19;;;;;;;32.35;17.52;;;;;;;;;;4976676;28;20102;-71
2022/11/03 05:52:45;;;;;;;36.08;18.27;;;;;;;;;;4976465;28;20038;-71
2022/11/03 05:55:30;;;;;;;32.90;18.58;;;;;;;;;;4976482;28;20019;-71
2022/11/03 05:58:00;;;;;;;26.83;16.13;;;;;;;;;;4976452;28;20022;-72
2022/11/03 06:00:32;;;;;;;24.38;14.57;;;;;;;;;;4975873;28;20043;-72
2022/11/03 06:02:58;;;;;;;26.27;14.88;;;;;;;;;;4975555;28;20026;-71
2022/11/03 06:05:24;;;;;;;22.70;13.95;;;;;;;;;;4976514;28;20030;-72
2022/11/03 06:07:51;;;;;;;27.60;15.05;;;;;;;;;;4976181;28;20093;-72
2022/11/03 06:10:28;;;;;;;28.52;17.23;;;;;;;;;;4976181;28;20026;-72
2022/11/03 06:13:06;;;;;;;27.40;17.38;;;;;;;;;;4976051;28;20475;-72
2022/11/03 06:15:33;;;;;;;34.45;18.38;;;;;;;;;;4976112;28;20030;-72
2022/11/03 06:17:59;;;;;;;30.38;16.40;;;;;;;;;;4958027;28;20475;-72
2022/11/03 06:20:25;;;;;;;30.58;17.63;;;;;;;;;;4974464;28;20073;-72
2022/11/03 06:22:51;;;;;;;35.53;18.00;;;;;;;;;;4974477;28;20046;-71
2022/11/03 06:25:22;;;;;;;40.22;18.98;;;;;;;;;;4975670;28;20042;-71
2022/11/03 06:27:49;;;;;;;41.30;19.25;;;;;;;;;;4974719;28;20057;-71
2022/11/03 06:30:24;;;;;;;36.67;17.05;;;;;;;;;;4974596;28;20023;-71
2022/11/03 06:32:49;;;;;;;33.88;15.98;;;;;;;;;;4975723;28;20035;-71
2022/11/03 06:35:15;;;;;;;33.40;15.75;;;;;;;;;;4974668;28;20527;-71
2022/11/03 06:37:40;;;;;;;32.22;15.63;;;;;;;;;;4975606;28;20050;-71
2022/11/03 06:40:08;;;;;;;36.92;16.00;;;;;;;;;;4975586;28;20471;-69
2022/11/03 06:42:34;;;;;;;38.15;16.35;;;;;;;;;;4975482;28;20110;-69
2022/11/03 06:45:01;;;;;;;30.63;14.88;;;;;;;;;;4975474;28;20459;-69
2022/11/03 06:47:27;;;;;;;19.83;12.13;;;;;;;;;;4975364;28;20038;-69
2022/11/03 06:49:56;;;;;;;16.85;11.05;;;;;;;;;;4975395;28;20029;-69
2022/11/03 06:52:29;;;;;;;21.23;13.18;;;;;;;;;;4975076;28;20053;-69
2022/11/03 06:54:59;;;;;;;18.10;10.93;;;;;;;;;;4975312;28;20446;-69
2022/11/03 06:57:25;;;;;;;19.77;11.80;;;;;;;;;;4975010;28;20395;-69
2022/11/03 06:59:52;;;;;;;22.02;12.27;;;;;;;;;;4972503;28;20027;-69
2022/11/03 07:02:36;;;;;;;27.70;13.63;;;;;;;;;;4975112;28;20035;-69
2022/11/03 07:05:05;;;;;;;37.63;15.38;;;;;;;;;;4990274;28;20035;-68
2022/11/03 07:07:30;;;;;;;31.45;14.90;;;;;;;;;;4975092;28;20391;-73
2022/11/03 07:09:55;;;;;;;25.80;13.48;;;;;;;;;;4975043;28;20039;-67
2022/11/03 07:12:21;;;;;;;26.15;13.60;;;;;;;;;;4974290;28;20034;-68
2022/11/03 07:14:46;;;;;;;28.13;13.85;;;;;;;;;;4974753;28;20034;-68
2022/11/03 07:17:20;;;;;;;30.45;15.20;;;;;;;;;;4974976;28;20029;-68
2022/11/03 07:19:46;;;;;;;27.85;15.23;;;;;;;;;;4974950;28;20039;-68
2022/11/03 07:22:18;;;;;;;31.98;15.40;;;;;;;;;;4974409;28;20027;-68
2022/11/03 07:24:45;;;;;;;27.73;14.98;;;;;;;;;;4974343;28;20041;-67
2022/11/03 07:27:11;;;;;;;25.75;14.35;;;;;;;;;;4989622;28;20038;-67
2022/11/03 07:29:36;;;;;;;24.58;13.95;;;;;;;;;;4989346;28;20399;-68
2022/11/03 07:32:08;;;;;;;23.95;13.55;;;;;;;;;;4974096;28;20027;-68
2022/11/03 07:34:33;;;;;;;19.58;13.40;;;;;;;;;;4974897;28;20031;-68
2022/11/03 07:36:59;;;;;;;20.42;13.88;;;;;;;;;;4974616;28;20089;-68
2022/11/03 07:39:27;;;;;;;19.67;13.18;;;;;;;;;;4974354;28;20030;-68
2022/11/03 07:41:52;;;;;;;18.75;12.80;;;;;;;;;;4988791;28;20360;-68
2022/11/03 07:44:21;;;;;;;21.58;13.70;;;;;;;;;;4974639;28;20034;-68
2022/11/03 07:46:47;;;;;;;19.63;12.45;;;;;;;;;;4974398;28;20431;-68
2022/11/03 07:49:20;;;;;;;17.52;13.43;;;;;;;;;;4974097;28;20127;-68
2022/11/03 07:51:46;;;;;;;19.65;12.95;;;;;;;;;;4973989;28;20035;-68
2022/11/03 07:54:15;;;;;;;18.70;12.80;;;;;;;;;;4973941;28;20030;-72
2022/11/03 07:56:42;;;;;;;22.50;14.43;;;;;;;;;;4989498;28;20030;-72
2022/11/03 07:59:07;;;;;;;22.42;13.63;;;;;;;;;;4974176;28;20379;-72
2022/11/03 08:01:35;;;;;;;24.25;14.48;;;;;;;;;;4972859;28;20042;-72
2022/11/03 08:04:03;;;;;;;28.00;15.32;;;;;;;;;;4956720;28;20442;-72
2022/11/03 08:06:28;;;;;;;23.00;14.65;;;;;;;;;;4973848;28;20035;-72
2022/11/03 08:08:54;;;;;;;31.10;16.13;;;;;;;;;;4974049;28;20038;-72
2022/11/03 08:11:21;;;;;;;24.08;14.63;;;;;;;;;;4973965;28;20037;-72
2022/11/03 08:13:46;;;;;;;25.02;15.88;;;;;;;;;;4972501;28;20027;-72
2022/11/03 08:16:12;;;;;;;25.40;15.75;;;;;;;;;;4973814;28;20037;-72
2022/11/03 08:18:37;;;;;;;25.75;14.75;;;;;;;;;;4988598;28;20423;-72
2022/11/03 08:21:03;;;;;;;20.92;13.55;;;;;;;;;;4973498;28;20391;-72
2022/11/03 08:23:28;;;;;;;27.88;16.10;;;;;;;;;;4973683;28;20022;-72
2022/11/03 08:25:54;;;;;;;25.50;15.25;;;;;;;;;;4973453;28;20049;-73
2022/11/03 08:28:19;;;;;;;26.27;14.40;;;;;;;;;;4973833;28;20058;-73
2022/11/03 08:30:44;;;;;;;25.75;15.00;;;;;;;;;;4973853;28;20035;-73
2022/11/03 08:33:10;;;;;;;23.40;14.15;;;;;;;;;;4973975;28;20400;-73
2022/11/03 08:35:35;;;;;;;26.92;14.32;;;;;;;;;;4973956;28;20047;-68
2022/11/03 08:38:00;;;;;;;24.35;13.23;;;;;;;;;;4973834;28;20031;-72
2022/11/03 08:40:26;;;;;;;17.63;12.63;;;;;;;;;;4974386;28;20031;-72
2022/11/03 08:42:51;;;;;;;19.13;12.50;;;;;;;;;;4974102;28;20094;-72
2022/11/03 08:45:17;;;;;;;22.95;12.48;;;;;;;;;;4973710;28;20427;-72
2022/11/03 08:47:42;;;;;;;19.42;12.45;;;;;;;;;;4973756;28;20026;-72
2022/11/03 08:50:08;;;;;;;19.27;11.73;;;;;;;;;;4988338;28;20026;-72
2022/11/03 08:52:33;;;;;;;21.85;11.65;;;;;;;;;;4973702;28;20073;-73
2022/11/03 08:55:06;;;;;;;18.75;11.55;;;;;;;;;;4974312;28;20057;-73
2022/11/03 08:57:32;;;;;;;20.77;10.45;;;;;;;;;;4972481;28;20038;-73
2022/11/03 08:59:58;;;;;;;20.60;11.05;;;;;;;;;;4956590;28;20022;-73
2022/11/03 09:02:23;;;;;;;14.90;8.13;;;;;;;;;;4972241;28;20054;-73
2022/11/03 09:04:49;;;;;;;12.57;8.18;;;;;;;;;;4973500;28;20023;-73
2022/11/03 09:07:14;;;;;;;14.15;7.35;;;;;;;;;;4972422;28;20038;-72
2022/11/03 09:09:39;;;;;;;13.63;7.75;;;;;;;;;;4973389;28;20025;-72
2022/11/03 09:12:05;;;;;;;12.57;7.28;;;;;;;;;;4973477;28;20483;-72
2022/11/03 09:14:30;;;;;;;12.73;6.75;;;;;;;;;;4972119;28;20467;-73
2022/11/03 09:16:55;;;;;;;13.50;6.90;;;;;;;;;;4973127;28;20089;-72
2022/11/03 09:19:21;;;;;;;18.88;9.90;;;;;;;;;;4973211;28;20066;-72
2022/11/03 09:21:47;;;;;;;28.15;13.73;;;;;;;;;;4973303;28;20090;-72
2022/11/03 09:24:12;;;;;;;15.00;8.32;;;;;;;;;;4973314;28;20048;-72
2022/11/03 09:26:37;;;;;;;13.88;6.15;;;;;;;;;;4972858;28;20043;-72
2022/11/03 09:29:03;;;;;;;12.68;6.47;;;;;;;;;;4972124;28;20031;-72
2022/11/03 09:31:29;;;;;;;12.93;6.43;;;;;;;;;;4973416;28;20102;-72
2022/11/03 09:33:54;;;;;;;12.85;6.18;;;;;;;;;;4972882;28;20396;-72
2022/11/03 09:36:19;;;;;;;9.07;5.57;;;;;;;;;;4974203;28;20035;-72
2022/11/03 09:38:45;;;;;;;10.60;5.97;;;;;;;;;;4976525;28;20027;-72
2022/11/03 09:41:16;;;;;;;13.30;5.35;;;;;;;;;;4975375;28;20038;-72
2022/11/03 09:43:46;;;;;;;9.90;5.30;;;;;;;;;;4975354;28;20474;-72
2022/11/03 09:46:13;;;;;;;8.68;4.63;;;;;;;;;;4976511;28;20494;-76
2022/11/03 09:48:38;;;;;;;11.20;4.68;;;;;;;;;;4976063;28;20572;-73
2022/11/03 09:51:04;;;;;;;8.23;4.47;;;;;;;;;;4976528;28;20038;-72
2022/11/03 09:53:30;;;;;;;7.05;3.47;;;;;;;;;;4976543;28;20150;-72
2022/11/03 09:55:56;;;;;;;10.30;3.83;;;;;;;;;;4976602;28;20037;-72
2022/11/03 09:58:21;;;;;;;11.82;4.45;;;;;;;;;;4974208;28;20031;-72
2022/11/03 10:00:47;;;;;;;7.95;4.50;;;;;;;;;;4973948;28;20038;-72
2022/11/03 10:03:16;;;;;;;7.25;4.13;;;;;;;;;;4973848;28;20030;-72
2022/11/03 10:05:45;;;;;;;6.23;3.40;;;;;;;;;;4975475;28;20086;-72
2022/11/03 10:08:17;;;;;;;7.00;3.53;;;;;;;;;;4975759;28;20022;-73
2022/11/03 10:10:42;;;;;;;4.10;2.95;;;;;;;;;;4975984;28;20493;-72
2022/11/03 10:13:12;;;;;;;5.85;3.10;;;;;;;;;;4976293;28;20106;-72
2022/11/03 10:15:38;;;;;;;4.55;2.97;;;;;;;;;;4976186;28;20031;-72
2022/11/03 10:18:04;;;;;;;6.72;2.80;;;;;;;;;;4976125;28;20110;-72
2022/11/03 10:20:30;;;;;;;3.28;2.20;;;;;;;;;;4975974;28;20038;-71
2022/11/03 10:22:55;;;;;;;4.10;1.92;;;;;;;;;;4975751;28;20115;-72
2022/11/03 10:25:37;;;;;;;4.22;2.20;;;;;;;;;;4975743;28;20498;-66
2022/11/03 10:28:12;;;;;;;3.60;2.20;;;;;;;;;;4975835;28;20084;-65
2022/11/03 10:30:54;;;;;;;4.90;2.38;;;;;;;;;;4975058;28;20034;-66
2022/11/03 10:33:30;;;;;;;3.63;1.90;;;;;;;;;;4975769;28;20034;-66
2022/11/03 10:35:56;;;;;;;3.35;1.90;;;;;;;;;;4975746;28;20482;-65
2022/11/03 10:38:26;;;;;;;2.33;1.70;;;;;;;;;;4975662;28;20030;-66
2022/11/03 10:40:51;;;;;;;4.10;1.80;;;;;;;;;;4975572;28;20049;-66
2022/11/03 10:43:17;;;;;;;5.22;2.10;;;;;;;;;;4975650;28;20463;-66
2022/11/03 10:45:42;;;;;;;4.53;1.90;;;;;;;;;;4975304;28;20027;-66
2022/11/03 10:48:08;;;;;;;3.78;1.98;;;;;;;;;;4973997;28;20485;-66
2022/11/03 10:50:34;;;;;;;4.75;1.90;;;;;;;;;;4975944;28;20027;-66
2022/11/03 10:52:59;;;;;;;5.38;2.20;;;;;;;;;;4976315;28;20475;-66
2022/11/03 10:55:25;;;;;;;2.25;1.83;;;;;;;;;;4975819;28;20034;-66
2022/11/03 10:57:51;;;;;;;3.78;1.77;;;;;;;;;;4976144;28;20181;-66
2022/11/03 11:00:17;;;;;;;4.00;1.90;;;;;;;;;;4975938;28;20041;-66
2022/11/03 11:02:44;;;;;;;9.25;4.07;;;;;;;;;;4976141;28;20015;-65
2022/11/03 11:05:20;;;;;;;11.45;4.40;;;;;;;;;;4976019;28;20027;-66
2022/11/03 11:07:46;;;;;;;2.92;2.30;;;;;;;;;;4973523;28;20467;-66
2022/11/03 11:10:25;;;;;;;3.45;1.90;;;;;;;;;;4974530;28;20101;-66
2022/11/03 11:13:11;;;;;;;2.58;1.70;;;;;;;;;;4974427;28;20077;-66
2022/11/03 11:15:40;;;;;;;2.28;1.52;;;;;;;;;;4974862;28;20038;-65
2022/11/03 11:18:06;;;;;;;3.67;1.70;;;;;;;;;;4974378;28;20474;-66
2022/11/03 11:20:31;;;;;;;5.15;1.80;;;;;;;;;;4974209;28;20035;-66
2022/11/03 11:23:16;;;;;;;3.35;1.70;;;;;;;;;;4973562;28;20034;-71
2022/11/03 11:26:01;;;;;;;2.28;1.38;;;;;;;;;;4974586;28;20035;-66
2022/11/03 11:28:26;;;;;;;2.33;1.65;;;;;;;;;;4975310;28;20034;-67
2022/11/03 11:31:26;;;;;;;5.88;1.92;;;;;;;;;;4973839;28;20391;-67
2022/11/03 11:34:11;;;;;;;2.40;1.48;;;;;;;;;;4974808;28;20037;-67
2022/11/03 11:36:37;;;;;;;5.35;1.58;;;;;;;;;;4999790;22;20070;-67
2022/11/03 11:39:10;;;;;;;3.83;1.30;;;;;;;;;;5014138;28;20030;-67
2022/11/03 11:41:54;;;;;;;3.58;1.67;;;;;;;;;;5014082;28;20045;-67
2022/11/03 11:44:38;;;;;;;2.55;1.40;;;;;;;;;;5012883;28;20493;-67
2022/11/03 11:47:22;;;;;;;6.85;2.28;;;;;;;;;;5013686;28;20029;-68
2022/11/03 11:50:08;;;;;;;1.48;1.15;;;;;;;;;;5013129;28;20117;-68
2022/11/03 11:52:45;;;;;;;4.22;1.70;;;;;;;;;;5002059;28;20045;-68
2022/11/03 11:55:18;;;;;;;2.83;1.73;;;;;;;;;;5013060;28;20501;-68
2022/11/03 11:57:45;;;;;;;2.65;1.50;;;;;;;;;;5013079;28;20052;-68
2022/11/03 12:00:17;;;;;;;4.50;1.63;;;;;;;;;;5012285;28;20025;-68
2022/11/03 12:02:45;;;;;;;4.88;1.70;;;;;;;;;;5013230;28;20058;-68
2022/11/03 12:05:17;;;;;;;4.78;1.70;;;;;;;;;;5013173;28;20084;-68
2022/11/03 12:07:42;;;;;;;4.43;1.50;;;;;;;;;;5012888;28;20038;-68
2022/11/03 12:10:27;;;;;;;5.85;1.50;;;;;;;;;;5012785;28;20351;-69
2022/11/03 12:12:54;;;;;;;3.63;1.52;;;;;;;;;;5013048;28;20022;-68
2022/11/03 12:15:38;;;;;;;2.47;1.50;;;;;;;;;;5011759;28;20049;-68
2022/11/03 12:18:23;;;;;;;4.55;2.03;;;;;;;;;;5012673;28;20036;-71
2022/11/03 12:20:48;;;;;;;3.70;2.30;;;;;;;;;;5012747;28;20026;-69
2022/11/03 12:23:33;;;;;;;2.28;1.42;;;;;;;;;;5012928;28;20378;-69
2022/11/03 12:25:58;;;;;;;4.03;2.28;;;;;;;;;;5012658;28;20446;-69
2022/11/03 12:28:31;;;;;;;9.85;4.18;;;;;;;;;;5012816;28;20057;-69
2022/11/03 12:30:56;;;;;;;8.27;4.68;;;;;;;;;;5012847;28;20389;-69
2022/11/03 12:33:21;;;;;;;5.20;2.53;;;;;;;;;;5013124;28;20022;-68
2022/11/03 12:35:47;;;;;;;3.90;3.05;;;;;;;;;;5011197;28;20030;-69
2022/11/03 12:38:12;;;;;;;3.90;2.03;;;;;;;;;;5011284;28;20046;-69
2022/11/03 12:40:37;;;;;;;5.95;3.28;;;;;;;;;;5011244;28;20034;-69
2022/11/03 12:43:03;;;;;;;5.78;3.28;;;;;;;;;;5014001;28;20014;-69
2022/11/03 12:45:28;;;;;;;3.97;2.88;;;;;;;;;;5013504;28;20036;-69
2022/11/03 12:47:54;;;;;;;5.70;2.80;;;;;;;;;;5013757;28;20060;-69
2022/11/03 12:50:20;;;;;;;5.30;3.20;;;;;;;;;;5012500;28;20077;-69
2022/11/03 12:52:45;;;;;;;5.35;2.90;;;;;;;;;;5011985;28;20058;-69
2022/11/03 12:55:11;;;;;;;7.10;3.63;;;;;;;;;;5013524;28;20037;-69
2022/11/03 12:57:36;;;;;;;6.88;3.08;;;;;;;;;;5012238;28;20157;-69
2022/11/03 13:00:02;;;;;;;7.43;3.65;;;;;;;;;;5013552;28;20340;-67
2022/11/03 13:02:27;;;;;;;7.15;3.60;;;;;;;;;;5013211;28;20029;-67
2022/11/03 13:04:53;;;;;;;5.90;3.58;;;;;;;;;;5013008;28;20029;-67
2022/11/03 13:07:19;;;;;;;9.20;4.10;;;;;;;;;;5013233;28;20014;-67
2022/11/03 13:09:44;;;;;;;7.65;5.03;;;;;;;;;;5013186;28;20108;-72
2022/11/03 13:14:55;;;;;;;7.70;4.10;;;;;;;;;;5017595;28;20029;-72
2022/11/03 13:17:22;;;;;;;9.80;4.32;;;;;;;;;;5017464;28;20036;-72
2022/11/03 13:19:47;;;;;;;6.80;4.00;;;;;;;;;;5017111;28;20138;-73
2022/11/03 13:22:12;;;;;;;8.50;4.43;;;;;;;;;;5016980;28;20526;-72
2022/11/03 13:24:38;;;;;;;9.75;4.80;;;;;;;;;;5017189;28;20022;-72
2022/11/03 13:27:03;;;;;;;9.20;4.75;;;;;;;;;;5016325;28;20466;-72
2022/11/03 13:29:29;;;;;;;13.38;5.47;;;;;;;;;;5015995;28;20536;-72
2022/11/03 13:31:54;;;;;;;10.60;5.03;;;;;;;;;;5014752;28;20433;-72
2022/11/03 13:34:19;;;;;;;10.70;5.03;;;;;;;;;;5015957;28;20117;-72
2022/11/03 13:36:45;;;;;;;12.45;6.07;;;;;;;;;;5015676;28;20556;-72
2022/11/03 13:39:11;;;;;;;9.98;5.03;;;;;;;;;;5015824;28;20034;-73
2022/11/03 13:41:37;;;;;;;13.05;5.32;;;;;;;;;;5014539;28;20030;-72
2022/11/03 13:44:02;;;;;;;12.30;5.30;;;;;;;;;;5015769;28;20501;-72
2022/11/03 13:46:27;;;;;;;10.95;5.28;;;;;;;;;;5014522;28;20108;-72
2022/11/03 13:48:53;;;;;;;13.98;5.40;;;;;;;;;;5015598;28;20034;-72
2022/11/03 13:51:20;;;;;;;10.45;4.70;;;;;;;;;;5015764;28;20025;-72
2022/11/03 13:53:46;;;;;;;10.85;5.03;;;;;;;;;;5014255;28;20028;-72
2022/11/03 13:56:11;;;;;;;11.77;4.50;;;;;;;;;;5015524;28;20025;-72
2022/11/03 13:58:36;;;;;;;9.73;4.50;;;;;;;;;;5015733;28;20029;-73
2022/11/03 14:01:01;;;;;;;10.90;4.53;;;;;;;;;;5014066;28;20561;-72
2022/11/03 14:03:27;;;;;;;7.82;4.50;;;;;;;;;;5015492;28;20022;-73
2022/11/03 14:05:52;;;;;;;8.90;4.45;;;;;;;;;;5014135;28;20473;-72
2022/11/03 14:08:17;;;;;;;11.02;4.20;;;;;;;;;;5015306;28;20084;-72
2022/11/03 14:10:43;;;;;;;8.60;4.47;;;;;;;;;;5015235;28;20029;-67
2022/11/03 14:13:10;;;;;;;7.55;4.00;;;;;;;;;;5015280;28;20525;-67
2022/11/03 14:15:36;;;;;;;9.52;3.92;;;;;;;;;;5015918;28;20096;-67
2022/11/03 14:18:01;;;;;;;10.93;4.03;;;;;;;;;;5015541;28;20104;-67
2022/11/03 14:20:29;;;;;;;9.27;4.90;;;;;;;;;;5014767;28;20462;-67
2022/11/03 14:22:55;;;;;;;9.00;4.38;;;;;;;;;;5029000;23;20077;-71
2022/11/03 14:25:21;;;;;;;13.13;4.78;;;;;;;;;;5015622;28;20060;-71
2022/11/03 14:27:46;;;;;;;10.60;4.97;;;;;;;;;;5020603;28;20109;-74
2022/11/03 14:30:12;;;;;;;15.52;7.60;;;;;;;;;;5016984;28;20083;-72
2022/11/03 14:32:37;;;;;;;25.08;14.57;;;;;;;;;;5018581;28;20029;-76
2022/11/03 14:35:03;;;;;;;10.05;6.43;;;;;;;;;;5016537;28;20037;-74
2022/11/03 14:37:28;;;;;;;8.13;5.90;;;;;;;;;;5017361;28;20029;-75
2022/11/03 14:39:53;;;;;;;12.30;6.93;;;;;;;;;;5019026;28;20462;-72
2022/11/03 14:42:19;;;;;;;8.95;5.70;;;;;;;;;;5016655;28;20389;-74
2022/11/03 14:44:45;;;;;;;12.10;7.03;;;;;;;;;;5013890;28;20029;-70
2022/11/03 14:47:11;;;;;;;14.75;5.72;;;;;;;;;;4997369;28;20454;-70
2022/11/03 14:49:37;;;;;;;10.75;5.10;;;;;;;;;;5014571;28;20030;-70
2022/11/03 14:52:03;;;;;;;10.35;5.65;;;;;;;;;;5014484;28;20081;-69
2022/11/03 14:54:29;;;;;;;12.00;6.65;;;;;;;;;;5014481;28;20118;-71